Time;durP1;ratioP1;P1;durP2;ratioP2;P2;SDS_P1;SDS_P2;PMS_P1;PMS_P2;Temp;Humidity;BMP_temperature;BMP_pressure;BME280_temperature;BME280_humidity;BME280_pressure;Samples;Min_cycle;Max_cycle;Signal;HPM_P1;HPM_P2
2022/09/07 00:01:49;;;;;;;3.00;2.70;;;24.70;57.80;;;;;;4460926;32;20073;-72
2022/09/07 00:04:16;;;;;;;3.72;2.95;;;24.70;57.80;;;;;;4446506;32;20196;-72
2022/09/07 00:06:41;;;;;;;5.68;2.72;;;24.70;57.80;;;;;;4460876;32;20065;-72
2022/09/07 00:09:07;;;;;;;3.33;2.60;;;24.70;57.80;;;;;;4460643;32;20534;-72
2022/09/07 00:11:33;;;;;;;3.42;2.60;;;24.70;57.80;;;;;;4460835;32;20131;-72
2022/09/07 00:13:59;;;;;;;2.65;2.45;;;24.70;57.70;;;;;;4460589;32;20490;-72
2022/09/07 00:16:28;;;;;;;3.60;3.03;;;24.70;57.70;;;;;;4460930;32;20215;-72
2022/09/07 00:18:55;;;;;;;2.80;2.60;;;24.70;57.70;;;;;;4460305;32;20093;-72
2022/09/07 00:21:21;;;;;;;3.13;2.67;;;24.70;57.70;;;;;;4446224;32;20065;-72
2022/09/07 00:23:49;;;;;;;4.47;2.75;;;24.70;57.70;;;;;;4460477;32;20184;-72
2022/09/07 00:26:18;;;;;;;3.65;2.53;;;24.70;57.70;;;;;;4460278;32;20082;-72
2022/09/07 00:28:45;;;;;;;3.05;2.60;;;24.70;57.70;;;;;;4460695;32;20069;-73
2022/09/07 00:31:17;;;;;;;3.03;2.65;;;24.70;57.70;;;;;;4460212;32;20070;-73
2022/09/07 00:33:43;;;;;;;2.85;2.53;;;24.70;57.70;;;;;;4446289;32;20089;-72
2022/09/07 00:36:09;;;;;;;2.97;2.70;;;24.70;57.70;;;;;;4446245;32;20202;-72
2022/09/07 00:38:35;;;;;;;2.78;2.53;;;24.70;57.70;;;;;;4460025;32;20128;-72
2022/09/07 00:41:02;;;;;;;2.80;2.50;;;24.70;57.70;;;;;;4460321;32;20097;-72
2022/09/07 00:43:40;;;;;;;3.55;2.38;;;24.70;58.60;;;;;;4460632;32;20078;-72
2022/09/07 00:46:18;;;;;;;3.20;2.80;;;24.70;57.70;;;;;;4460295;32;20132;-72
2022/09/07 00:48:51;;;;;;;3.60;2.83;;;24.70;57.70;;;;;;4460499;32;20121;-72
2022/09/07 00:51:59;;;;;;;3.60;2.30;;;24.70;57.70;;;;;;4446956;32;20163;-72
2022/09/07 00:54:33;;;;;;;3.53;2.75;;;24.70;57.70;;;;;;4459839;32;20499;-72
2022/09/07 00:56:59;;;;;;;2.47;2.28;;;24.60;57.60;;;;;;4460636;32;20132;-72
2022/09/07 00:59:28;;;;;;;2.63;2.40;;;24.60;57.60;;;;;;4460321;32;20078;-72
2022/09/07 01:01:54;;;;;;;3.08;2.45;;;24.60;57.60;;;;;;4460251;32;20074;-72
2022/09/07 01:04:21;;;;;;;3.35;2.65;;;24.60;57.60;;;;;;4463225;32;20097;-72
2022/09/07 01:06:48;;;;;;;4.10;2.95;;;24.60;57.60;;;;;;4463190;32;20080;-72
2022/09/07 01:09:18;;;;;;;2.90;2.60;;;24.60;57.60;;;;;;4463181;32;20066;-72
2022/09/07 01:11:49;;;;;;;2.83;2.40;;;24.60;57.60;;;;;;4463360;32;20414;-72
2022/09/07 01:14:21;;;;;;;2.92;2.50;;;24.60;57.60;;;;;;4463098;32;20490;-72
2022/09/07 01:17:22;;;;;;;2.67;2.47;;;24.60;57.60;;;;;;4449562;32;20400;-72
2022/09/07 01:20:28;;;;;;;2.97;2.67;;;24.60;57.60;;;;;;4463630;32;20617;-72
2022/09/07 01:23:48;;;;;;;2.78;2.40;;;24.60;57.60;;;;;;4462772;32;20084;-72
2022/09/07 01:26:25;;;;;;;2.63;2.22;;;24.60;57.60;;;;;;4399669;32;20098;-72
2022/09/07 01:29:02;;;;;;;2.90;2.60;;;24.60;57.60;;;;;;4399587;32;20082;-73
2022/09/07 01:31:47;;;;;;;2.80;2.60;;;24.60;57.60;;;;;;4431456;32;20535;-72
2022/09/07 01:34:20;;;;;;;2.55;2.25;;;24.60;57.60;;;;;;4462693;32;20515;-72
2022/09/07 01:37:04;;;;;;;2.80;2.30;;;24.60;57.60;;;;;;4462846;32;20070;-72
2022/09/07 01:39:55;;;;;;;3.53;2.28;;;24.60;57.70;;;;;;4462701;32;20600;-72
2022/09/07 01:42:29;;;;;;;2.60;2.40;;;24.60;57.60;;;;;;4463218;32;20058;-72
2022/09/07 01:44:58;;;;;;;2.65;2.45;;;24.60;57.60;;;;;;4448790;32;20155;-72
2022/09/07 01:47:29;;;;;;;3.08;2.70;;;24.60;57.60;;;;;;4448220;32;20077;-72
2022/09/07 01:50:06;;;;;;;3.05;2.50;;;24.50;57.60;;;;;;4462876;32;20168;-72
2022/09/07 01:53:06;;;;;;;2.60;2.40;;;24.50;57.60;;;;;;4462766;32;20084;-72
2022/09/07 01:55:41;;;;;;;2.45;2.25;;;24.50;57.60;;;;;;4462551;32;20084;-72
2022/09/07 01:58:34;;;;;;;3.10;2.30;;;24.50;57.60;;;;;;4462508;32;20534;-72
2022/09/07 02:01:06;;;;;;;3.13;2.35;;;24.50;57.60;;;;;;4462828;32;20199;-72
2022/09/07 02:03:39;;;;;;;2.57;2.37;;;24.50;57.60;;;;;;4462277;32;20140;-72
2022/09/07 02:06:17;;;;;;;4.20;2.50;;;24.60;57.60;;;;;;4461943;32;20089;-72
2022/09/07 02:08:53;;;;;;;2.80;2.50;;;24.50;57.60;;;;;;4462200;32;20167;-72
2022/09/07 02:11:27;;;;;;;3.75;2.60;;;24.50;57.60;;;;;;4462510;32;20097;-72
2022/09/07 02:13:59;;;;;;;2.65;2.45;;;24.50;57.60;;;;;;4461738;32;20070;-72
2022/09/07 02:16:27;;;;;;;2.40;2.20;;;24.50;57.60;;;;;;4462108;32;20206;-72
2022/09/07 02:19:01;;;;;;;2.95;2.42;;;24.50;57.60;;;;;;4448246;32;20070;-73
2022/09/07 02:21:34;;;;;;;2.90;2.50;;;24.50;57.60;;;;;;4462219;32;20088;-71
2022/09/07 02:24:06;;;;;;;3.33;2.50;;;24.50;57.60;;;;;;4462331;32;20228;-72
2022/09/07 02:26:36;;;;;;;2.60;2.40;;;24.50;57.60;;;;;;4462387;32;20073;-71
2022/09/07 02:29:02;;;;;;;3.05;2.75;;;24.50;57.60;;;;;;4462120;32;20081;-71
2022/09/07 02:31:28;;;;;;;2.90;2.53;;;24.50;57.60;;;;;;4461999;32;20116;-71
2022/09/07 02:33:54;;;;;;;3.20;2.60;;;24.50;57.60;;;;;;4462264;32;20088;-72
2022/09/07 02:36:25;;;;;;;2.97;2.40;;;24.50;57.60;;;;;;4447602;32;20077;-71
2022/09/07 02:38:51;;;;;;;5.55;2.65;;;24.50;57.60;;;;;;4462229;32;20566;-71
2022/09/07 02:41:34;;;;;;;3.97;2.20;;;24.50;57.60;;;;;;4461848;32;20550;-71
2022/09/07 02:44:01;;;;;;;2.20;2.00;;;24.40;57.50;;;;;;4461955;32;20089;-71
2022/09/07 02:46:49;;;;;;;2.45;2.15;;;24.40;57.50;;;;;;4461372;32;20243;-72
2022/09/07 02:49:41;;;;;;;2.67;2.38;;;24.40;57.50;;;;;;4447967;32;20199;-72
2022/09/07 02:52:42;;;;;;;2.92;2.13;;;24.40;57.50;;;;;;4461501;32;20069;-72
2022/09/07 02:55:23;;;;;;;2.53;2.33;;;24.40;57.50;;;;;;4461678;32;20109;-72
2022/09/07 02:58:07;;;;;;;3.72;2.25;;;24.40;57.50;;;;;;4461544;32;20132;-72
2022/09/07 03:00:48;;;;;;;2.42;2.22;;;24.40;57.50;;;;;;4461422;32;20519;-72
2022/09/07 03:03:18;;;;;;;3.15;2.60;;;24.40;58.40;;;;;;4461753;32;20495;-73
2022/09/07 03:06:05;;;;;;;2.85;2.63;;;24.40;57.50;;;;;;4447778;32;20073;-72
2022/09/07 03:08:42;;;;;;;2.90;2.30;;;24.40;57.50;;;;;;4461189;32;20104;-72
2022/09/07 03:11:08;;;;;;;2.45;2.25;;;24.40;57.50;;;;;;4461866;32;20078;-72
2022/09/07 03:13:34;;;;;;;2.75;2.33;;;24.40;57.50;;;;;;4447092;32;20062;-72
2022/09/07 03:16:00;;;;;;;2.45;2.25;;;24.40;57.50;;;;;;4447158;32;20082;-72
2022/09/07 03:18:27;;;;;;;2.95;2.35;;;24.40;57.50;;;;;;4461128;32;20686;-72
2022/09/07 03:20:53;;;;;;;2.35;2.10;;;24.40;57.50;;;;;;4461251;32;20077;-72
2022/09/07 03:23:19;;;;;;;2.50;2.30;;;24.40;57.50;;;;;;4461545;32;20118;-72
2022/09/07 03:25:47;;;;;;;2.80;2.17;;;24.40;57.50;;;;;;4461198;32;20417;-72
2022/09/07 03:28:13;;;;;;;2.72;2.10;;;24.40;57.50;;;;;;4461702;32;20126;-73
2022/09/07 03:30:46;;;;;;;3.30;2.60;;;24.40;57.50;;;;;;4460913;32;20555;-72
2022/09/07 03:33:14;;;;;;;2.67;2.47;;;24.40;57.50;;;;;;4461353;32;20380;-72
2022/09/07 03:35:42;;;;;;;4.35;2.63;;;24.40;57.50;;;;;;4461280;32;20097;-72
2022/09/07 03:38:08;;;;;;;2.38;2.15;;;24.40;57.50;;;;;;4461308;32;20100;-72
2022/09/07 03:40:34;;;;;;;2.83;2.20;;;24.40;57.50;;;;;;4461310;32;20423;-72
2022/09/07 03:43:00;;;;;;;2.40;2.20;;;24.40;57.50;;;;;;4447003;32;20155;-73
2022/09/07 03:45:26;;;;;;;2.75;2.30;;;24.40;57.50;;;;;;4460960;32;20566;-72
2022/09/07 03:47:52;;;;;;;3.00;2.13;;;24.40;57.50;;;;;;4460735;32;20080;-71
2022/09/07 03:50:17;;;;;;;2.10;1.85;;;24.30;57.50;;;;;;4461158;32;20298;-72
2022/09/07 03:52:43;;;;;;;2.55;2.15;;;24.30;57.50;;;;;;4460733;32;20093;-72
2022/09/07 03:55:10;;;;;;;3.03;2.60;;;24.40;57.50;;;;;;4446864;32;20569;-72
2022/09/07 03:57:35;;;;;;;3.35;2.08;;;24.30;57.50;;;;;;4461188;32;20111;-72
2022/09/07 04:00:03;;;;;;;3.30;2.20;;;24.30;57.50;;;;;;4460728;32;20450;-72
2022/09/07 04:02:29;;;;;;;2.70;2.10;;;24.30;57.50;;;;;;4460843;32;20105;-73
2022/09/07 04:04:55;;;;;;;3.10;2.15;;;24.30;57.50;;;;;;4460677;32;20617;-73
2022/09/07 04:07:21;;;;;;;4.03;2.30;;;24.30;57.50;;;;;;4460413;32;20058;-72
2022/09/07 04:09:50;;;;;;;2.63;2.00;;;24.30;57.50;;;;;;4460788;32;20066;-72
2022/09/07 04:12:16;;;;;;;2.47;2.10;;;24.30;57.50;;;;;;4460855;32;20507;-72
2022/09/07 04:14:41;;;;;;;2.53;2.00;;;24.30;57.50;;;;;;4460688;32;20077;-71
2022/09/07 04:17:07;;;;;;;8.45;2.13;;;24.30;57.50;;;;;;4460643;32;20492;-71
2022/09/07 04:19:33;;;;;;;2.53;2.08;;;24.30;57.60;;;;;;4460602;32;20078;-70
2022/09/07 04:21:59;;;;;;;4.47;2.00;;;24.30;58.00;;;;;;4460481;32;20243;-70
2022/09/07 04:24:25;;;;;;;3.85;2.10;;;24.30;57.80;;;;;;4460538;32;20460;-72
2022/09/07 04:26:51;;;;;;;5.05;2.17;;;24.30;57.80;;;;;;4460302;32;20084;-72
2022/09/07 04:29:17;;;;;;;14.18;2.30;;;24.30;57.80;;;;;;4446586;32;20124;-72
2022/09/07 04:31:43;;;;;;;2.83;2.00;;;24.30;57.80;;;;;;4460288;32;20085;-72
2022/09/07 04:34:10;;;;;;;5.65;2.30;;;24.30;57.80;;;;;;4446403;32;20116;-72
2022/09/07 04:36:36;;;;;;;4.80;2.40;;;24.30;57.80;;;;;;4460263;32;20066;-72
2022/09/07 04:39:04;;;;;;;3.63;2.00;;;24.30;57.80;;;;;;4462844;32;20100;-72
2022/09/07 04:41:31;;;;;;;6.18;2.00;;;24.30;57.80;;;;;;4463699;32;20128;-72
2022/09/07 04:43:59;;;;;;;4.45;2.28;;;24.30;57.80;;;;;;4463846;32;20108;-74
2022/09/07 04:46:32;;;;;;;3.30;1.98;;;24.30;57.80;;;;;;4463607;32;20159;-72
2022/09/07 04:49:00;;;;;;;2.65;2.10;;;24.30;57.80;;;;;;4463717;32;20088;-72
2022/09/07 04:51:28;;;;;;;5.10;2.15;;;24.30;57.80;;;;;;4449217;32;20499;-72
2022/09/07 04:53:55;;;;;;;2.67;1.75;;;24.30;57.80;;;;;;4463501;32;20098;-72
2022/09/07 04:56:22;;;;;;;7.75;2.20;;;24.30;57.80;;;;;;4463498;32;20093;-72
2022/09/07 04:58:49;;;;;;;3.22;1.75;;;24.30;57.80;;;;;;4463417;32;20140;-72
2022/09/07 05:01:18;;;;;;;2.22;1.70;;;24.20;57.80;;;;;;4463378;32;20080;-72
2022/09/07 05:03:44;;;;;;;4.60;1.80;;;24.30;57.80;;;;;;4449127;32;20069;-72
2022/09/07 05:06:10;;;;;;;2.22;1.75;;;24.20;57.80;;;;;;4449456;32;20442;-73
2022/09/07 05:08:41;;;;;;;2.33;1.90;;;24.30;57.80;;;;;;4463336;32;20105;-74
2022/09/07 05:11:08;;;;;;;2.67;1.88;;;24.20;57.80;;;;;;4463363;32;20724;-73
2022/09/07 05:13:34;;;;;;;2.75;2.08;;;24.20;57.70;;;;;;4462846;32;20074;-73
2022/09/07 05:16:06;;;;;;;2.58;1.85;;;24.20;57.80;;;;;;4463123;32;20102;-73
2022/09/07 05:18:32;;;;;;;3.00;2.20;;;24.20;57.80;;;;;;4463291;32;20078;-73
2022/09/07 05:21:16;;;;;;;2.55;1.90;;;24.20;57.80;;;;;;4462854;32;20092;-73
2022/09/07 05:23:43;;;;;;;2.95;1.80;;;24.20;57.80;;;;;;4462911;32;20073;-73
2022/09/07 05:26:10;;;;;;;2.72;2.03;;;24.20;57.80;;;;;;4463530;32;20080;-73
2022/09/07 05:28:37;;;;;;;3.10;1.88;;;24.20;57.80;;;;;;4449339;32;20089;-73
2022/09/07 05:31:08;;;;;;;2.47;1.60;;;24.20;57.80;;;;;;4449161;32;20070;-73
2022/09/07 05:33:35;;;;;;;4.07;1.80;;;24.20;57.80;;;;;;4463127;32;20077;-72
2022/09/07 05:36:01;;;;;;;4.20;1.85;;;24.20;57.80;;;;;;4462806;32;20082;-72
2022/09/07 05:38:28;;;;;;;4.47;1.73;;;24.20;57.80;;;;;;4463144;32;20085;-73
2022/09/07 05:40:54;;;;;;;2.85;1.83;;;24.20;57.80;;;;;;4448973;32;20231;-73
2022/09/07 05:43:21;;;;;;;2.60;1.90;;;24.20;57.80;;;;;;4462936;32;20109;-72
2022/09/07 05:45:47;;;;;;;2.65;1.70;;;24.20;57.80;;;;;;4462545;32;20138;-72
2022/09/07 05:48:12;;;;;;;1.85;1.58;;;24.20;57.80;;;;;;4462303;32;20080;-72
2022/09/07 05:50:38;;;;;;;2.80;1.98;;;24.20;57.80;;;;;;4462948;32;20074;-73
2022/09/07 05:53:04;;;;;;;2.03;1.60;;;24.20;57.80;;;;;;4462926;32;20084;-73
2022/09/07 05:55:30;;;;;;;2.67;1.90;;;24.20;57.80;;;;;;4448793;32;20203;-72
2022/09/07 05:57:56;;;;;;;2.25;1.77;;;24.20;57.80;;;;;;4462372;32;20133;-72
2022/09/07 06:00:23;;;;;;;2.75;1.60;;;24.20;57.80;;;;;;4462555;32;20502;-72
2022/09/07 06:02:48;;;;;;;2.10;1.73;;;24.20;57.80;;;;;;4448593;32;20227;-72
2022/09/07 06:05:14;;;;;;;2.15;1.88;;;24.20;57.80;;;;;;4462476;32;20074;-74
2022/09/07 06:07:40;;;;;;;3.25;1.83;;;24.20;57.80;;;;;;4462550;32;20478;-72
2022/09/07 06:10:07;;;;;;;1.95;1.50;;;24.20;57.80;;;;;;4462813;32;20062;-72
2022/09/07 06:12:34;;;;;;;3.08;1.65;;;24.20;57.80;;;;;;4462319;32;20094;-72
2022/09/07 06:15:00;;;;;;;2.92;1.77;;;24.20;57.80;;;;;;4462442;32;20133;-72
2022/09/07 06:17:30;;;;;;;2.53;1.80;;;24.20;57.80;;;;;;4462037;32;20533;-72
2022/09/07 06:19:56;;;;;;;2.10;1.70;;;24.20;57.80;;;;;;4461991;32;20073;-72
2022/09/07 06:22:22;;;;;;;2.67;1.60;;;24.20;57.80;;;;;;4462222;32;20227;-72
2022/09/07 06:24:48;;;;;;;2.63;1.98;;;24.20;57.90;;;;;;4435226;32;20491;-72
2022/09/07 06:27:13;;;;;;;1.60;1.30;;;24.20;57.90;;;;;;4447943;32;20085;-72
2022/09/07 06:29:39;;;;;;;2.60;1.80;;;24.20;57.90;;;;;;4462289;32;20219;-72
2022/09/07 06:32:05;;;;;;;2.38;1.83;;;24.10;57.80;;;;;;4448152;32;20605;-73
2022/09/07 06:34:32;;;;;;;2.60;1.60;;;24.20;57.90;;;;;;4447862;32;20078;-73
2022/09/07 06:36:57;;;;;;;3.40;2.63;;;24.10;58.00;;;;;;4435180;32;20085;-74
2022/09/07 06:39:23;;;;;;;4.50;3.05;;;24.10;58.20;;;;;;4462036;32;20666;-73
2022/09/07 06:41:49;;;;;;;4.20;3.50;;;24.10;58.50;;;;;;4461858;32;20270;-73
2022/09/07 06:44:15;;;;;;;5.95;3.30;;;24.10;58.60;;;;;;4462119;32;20227;-74
2022/09/07 06:46:41;;;;;;;6.75;3.83;;;24.10;58.80;;;;;;4447648;32;20152;-73
2022/09/07 06:49:06;;;;;;;6.82;4.20;;;24.10;59.00;;;;;;4461921;32;20073;-73
2022/09/07 06:51:32;;;;;;;8.00;4.20;;;24.10;59.10;;;;;;4447417;32;20231;-73
2022/09/07 06:54:00;;;;;;;7.93;3.45;;;24.10;59.40;;;;;;4461953;32;20212;-74
2022/09/07 06:56:28;;;;;;;9.35;4.20;;;24.10;59.70;;;;;;4461923;32;20074;-74
2022/09/07 06:58:55;;;;;;;7.75;4.50;;;24.00;59.70;;;;;;4448061;32;20089;-72
2022/09/07 07:01:22;;;;;;;6.45;4.25;;;24.00;59.60;;;;;;4461018;32;20078;-73
2022/09/07 07:03:49;;;;;;;5.13;3.70;;;24.00;59.70;;;;;;4447879;32;20089;-73
2022/09/07 07:06:16;;;;;;;8.30;4.90;;;24.00;59.80;;;;;;4461472;32;20537;-74
2022/09/07 07:08:41;;;;;;;7.18;4.32;;;24.00;59.90;;;;;;4461783;32;20164;-73
2022/09/07 07:11:10;;;;;;;6.35;4.30;;;24.00;59.90;;;;;;4461474;32;20378;-73
2022/09/07 07:13:37;;;;;;;6.88;4.65;;;24.00;60.00;;;;;;4461117;32;20073;-73
2022/09/07 07:16:14;;;;;;;7.68;4.70;;;24.00;60.10;;;;;;4461279;32;20097;-74
2022/09/07 07:18:41;;;;;;;10.95;5.00;;;24.00;60.10;;;;;;4461435;32;20267;-74
2022/09/07 07:21:12;;;;;;;7.18;4.80;;;24.00;60.20;;;;;;4461528;32;20088;-74
2022/09/07 07:23:39;;;;;;;6.72;4.32;;;24.00;60.10;;;;;;4461267;32;20581;-74
2022/09/07 07:26:16;;;;;;;8.00;4.40;;;24.00;60.20;;;;;;4461535;32;20092;-73
2022/09/07 07:28:43;;;;;;;6.45;5.07;;;24.00;60.20;;;;;;4447265;32;20211;-73
2022/09/07 07:31:10;;;;;;;11.05;5.80;;;24.00;60.30;;;;;;4446548;32;20370;-72
2022/09/07 07:36:39;;;;;;;8.15;5.40;;;24.00;60.20;;;;;;4461426;32;20109;-71
2022/09/07 07:39:05;;;;;;;10.80;6.35;;;23.90;60.40;;;;;;4460699;32;20406;-68
2022/09/07 07:41:31;;;;;;;10.38;6.25;;;23.90;60.80;;;;;;4461226;32;20476;-71
2022/09/07 07:43:59;;;;;;;9.23;5.47;;;23.90;60.70;;;;;;4460819;32;20497;-71
2022/09/07 07:46:26;;;;;;;9.77;5.55;;;23.90;60.70;;;;;;4460549;32;20408;-71
2022/09/07 07:48:53;;;;;;;7.15;6.03;;;23.90;60.60;;;;;;4461094;32;20507;-71
2022/09/07 07:51:19;;;;;;;8.38;5.78;;;23.90;60.40;;;;;;4460548;32;20069;-76
2022/09/07 07:53:45;;;;;;;9.15;5.80;;;23.90;60.40;;;;;;4460787;32;20089;-71
2022/09/07 07:56:12;;;;;;;8.25;5.80;;;24.00;60.40;;;;;;4460440;32;20073;-73
2022/09/07 07:58:38;;;;;;;7.38;5.43;;;23.90;60.50;;;;;;4460621;32;20085;-73
2022/09/07 08:01:07;;;;;;;9.20;5.95;;;23.90;60.60;;;;;;4460841;32;20073;-74
2022/09/07 08:03:34;;;;;;;10.18;5.72;;;23.90;60.70;;;;;;4460655;32;20066;-76
2022/09/07 08:06:06;;;;;;;11.20;6.50;;;23.90;60.80;;;;;;4460480;32;20113;-75
2022/09/07 08:08:34;;;;;;;11.45;5.97;;;23.90;61.00;;;;;;4460172;32;20128;-77
2022/09/07 08:11:08;;;;;;;9.73;5.80;;;24.00;61.10;;;;;;4446715;32;20149;-76
2022/09/07 08:13:36;;;;;;;7.95;5.80;;;24.00;61.00;;;;;;4460219;32;20091;-74
2022/09/07 08:16:04;;;;;;;9.40;6.13;;;24.00;61.10;;;;;;4460667;32;20070;-75
2022/09/07 08:18:32;;;;;;;8.40;5.95;;;24.00;61.10;;;;;;4433773;32;20131;-76
2022/09/07 08:21:03;;;;;;;9.20;5.78;;;24.00;61.10;;;;;;4460426;32;20081;-75
2022/09/07 08:23:31;;;;;;;7.32;5.57;;;24.00;61.20;;;;;;4460341;32;20148;-73
2022/09/07 08:25:58;;;;;;;10.25;6.07;;;24.00;61.30;;;;;;4446140;32;20140;-74
2022/09/07 08:28:26;;;;;;;7.20;5.95;;;24.00;61.20;;;;;;4460100;32;20080;-74
2022/09/07 08:30:52;;;;;;;14.75;6.00;;;24.00;61.30;;;;;;4461242;32;20085;-74
2022/09/07 08:33:18;;;;;;;7.93;5.47;;;24.00;61.40;;;;;;4461109;32;20391;-72
2022/09/07 08:35:59;;;;;;;10.57;6.82;;;24.00;61.30;;;;;;4460193;32;20448;-74
2022/09/07 08:38:27;;;;;;;6.70;5.53;;;24.00;61.40;;;;;;4460254;32;20091;-71
2022/09/07 08:40:54;;;;;;;8.88;5.95;;;24.00;61.50;;;;;;4460898;32;20081;-72
2022/09/07 08:43:28;;;;;;;8.02;6.32;;;23.90;61.50;;;;;;4446881;32;20216;-72
2022/09/07 08:46:02;;;;;;;10.60;6.15;;;24.00;61.60;;;;;;4460498;32;20499;-74
2022/09/07 08:48:31;;;;;;;;;;;24.00;61.70;;;;;;4462209;32;20077;-72
2022/09/07 08:51:28;;;;;;;21.60;6.90;;;24.00;61.60;;;;;;4460135;32;20410;-74
2022/09/07 08:53:54;;;;;;;9.45;6.22;;;24.00;61.90;;;;;;4460002;32;20084;-72
2022/09/07 08:56:30;;;;;;;9.23;6.78;;;24.00;61.90;;;;;;4460463;32;20101;-72
2022/09/07 08:58:57;;;;;;;11.15;7.50;;;24.00;62.00;;;;;;4460102;32;20183;-71
2022/09/07 09:01:35;;;;;;;9.02;6.47;;;24.00;61.90;;;;;;4446247;32;20073;-72
2022/09/07 09:04:01;;;;;;;8.20;6.57;;;24.00;62.00;;;;;;4460577;32;20121;-76
2022/09/07 09:06:51;;;;;;;9.30;6.30;;;23.90;61.80;;;;;;4446311;32;20279;-72
2022/09/07 09:09:29;;;;;;;8.95;7.03;;;24.00;61.80;;;;;;4460503;32;20251;-73
2022/09/07 09:11:55;;;;;;;10.13;6.70;;;24.00;61.90;;;;;;4460196;32;20136;-75
2022/09/07 09:14:20;;;;;;;10.10;6.82;;;24.00;62.00;;;;;;4460763;32;20110;-75
2022/09/07 09:17:10;;;;;;;8.45;6.60;;;24.00;62.00;;;;;;4460434;32;20066;-74
2022/09/07 09:19:53;;;;;;;8.20;6.47;;;24.00;62.00;;;;;;4460381;32;20073;-77
2022/09/07 09:22:25;;;;;;;11.20;6.82;;;24.00;62.10;;;;;;4460489;32;20546;-71
2022/09/07 09:25:15;;;;;;;8.68;6.43;;;24.00;62.20;;;;;;4462660;32;20533;-70
2022/09/07 09:27:41;;;;;;;11.25;6.70;;;24.00;62.20;;;;;;4462935;32;20085;-74
2022/09/07 09:30:17;;;;;;;10.73;6.63;;;24.00;62.30;;;;;;4448992;32;20085;-77
2022/09/07 09:32:45;;;;;;;8.45;6.95;;;24.00;62.40;;;;;;4449005;32;20097;-77
2022/09/07 09:35:12;;;;;;;10.30;6.90;;;24.00;62.40;;;;;;4463267;32;20116;-75
2022/09/07 09:37:40;;;;;;;8.13;6.47;;;24.00;62.50;;;;;;4463092;32;20166;-76
2022/09/07 09:40:24;;;;;;;11.85;7.18;;;24.00;62.40;;;;;;4462899;32;20215;-75
2022/09/07 09:43:06;;;;;;;6.97;6.18;;;24.00;62.30;;;;;;4463093;32;20318;-75
2022/09/07 09:45:43;;;;;;;7.75;6.45;;;24.00;62.50;;;;;;4462996;32;20088;-76
2022/09/07 09:48:16;;;;;;;8.80;7.63;;;24.00;62.50;;;;;;4462664;32;20073;-75
2022/09/07 09:50:49;;;;;;;8.32;6.53;;;24.00;62.50;;;;;;4463245;32;20088;-78
2022/09/07 09:53:28;;;;;;;11.63;6.30;;;24.00;62.40;;;;;;4462856;32;20081;-74
2022/09/07 09:55:55;;;;;;;7.30;5.80;;;24.00;62.50;;;;;;4463050;32;20089;-77
2022/09/07 09:58:31;;;;;;;15.20;6.40;;;24.00;62.40;;;;;;4462767;32;20102;-74
2022/09/07 10:01:01;;;;;;;10.95;5.93;;;24.00;62.50;;;;;;4462771;32;20144;-76
2022/09/07 10:03:29;;;;;;;12.80;6.18;;;24.00;62.60;;;;;;4462613;32;20236;-80
2022/09/07 10:05:56;;;;;;;8.85;5.95;;;24.00;62.60;;;;;;4462718;32;20139;-78
2022/09/07 10:08:32;;;;;;;7.88;5.78;;;24.00;62.70;;;;;;4448555;32;20098;-80
2022/09/07 10:11:03;;;;;;;8.52;6.20;;;24.10;62.70;;;;;;4462777;32;20073;-75
2022/09/07 10:13:30;;;;;;;7.15;5.35;;;24.10;62.80;;;;;;4462651;32;20070;-77
2022/09/07 10:15:58;;;;;;;8.15;5.75;;;24.00;62.70;;;;;;4462686;32;20089;-76
2022/09/07 10:18:34;;;;;;;9.68;6.18;;;24.10;62.80;;;;;;4462594;32;20078;-77
2022/09/07 10:21:22;;;;;;;12.07;6.05;;;24.10;62.90;;;;;;4463026;32;20227;-78
2022/09/07 10:23:56;;;;;;;8.07;5.70;;;24.10;62.90;;;;;;4462879;32;20090;-75
2022/09/07 10:26:32;;;;;;;;;;;24.10;62.80;;;;;;4463181;32;20482;-77
2022/09/07 10:29:21;;;;;;;9.35;5.72;;;24.10;62.90;;;;;;4448346;32;19996;-74
2022/09/07 10:31:53;;;;;;;6.07;5.32;;;24.10;62.90;;;;;;4462138;32;20601;-77
2022/09/07 10:34:30;;;;;;;9.15;5.20;;;24.10;62.70;;;;;;4462059;32;20086;-77
2022/09/07 10:37:07;;;;;;;6.05;5.28;;;24.10;62.80;;;;;;4461357;32;20415;-77
2022/09/07 10:39:57;;;;;;;5.30;4.68;;;24.20;62.90;;;;;;4462182;32;20066;-76
2022/09/07 10:42:31;;;;;;;8.80;5.03;;;24.20;62.80;;;;;;4462172;32;20089;-76
2022/09/07 10:45:20;;;;;;;5.10;4.50;;;24.20;62.90;;;;;;4462172;32;20142;-76
2022/09/07 10:48:06;;;;;;;7.55;4.80;;;24.20;62.80;;;;;;4461616;32;20077;-76
2022/09/07 10:50:54;;;;;;;7.22;4.28;;;24.20;62.90;;;;;;4447671;32;20575;-78
2022/09/07 10:53:52;;;;;;;6.43;4.55;;;24.20;62.80;;;;;;4461758;32;20607;-76
2022/09/07 10:56:25;;;;;;;5.30;4.20;;;24.20;63.10;;;;;;4439988;32;20407;-75
2022/09/07 10:58:57;;;;;;;7.45;4.47;;;24.30;62.90;;;;;;4461718;32;20596;-78
2022/09/07 11:01:32;;;;;;;4.78;3.88;;;24.30;62.80;;;;;;4461604;32;20078;-78
2022/09/07 11:04:26;;;;;;;5.68;4.32;;;24.30;62.80;;;;;;4461687;32;20066;-78
2022/09/07 11:07:02;;;;;;;5.05;3.70;;;24.30;63.70;;;;;;4434757;32;20089;-78
2022/09/07 11:09:50;;;;;;;6.93;3.58;;;24.30;62.70;;;;;;4461343;32;20090;-71
2022/09/07 11:12:20;;;;;;;5.32;3.65;;;24.30;62.70;;;;;;4447354;32;20507;-75
2022/09/07 11:14:55;;;;;;;5.68;4.10;;;24.30;62.80;;;;;;4461882;32;20073;-73
2022/09/07 11:17:24;;;;;;;5.80;3.67;;;24.30;62.70;;;;;;4461497;32;20129;-72
2022/09/07 11:20:00;;;;;;;4.78;3.65;;;24.30;62.70;;;;;;4447127;32;20139;-74
2022/09/07 11:22:31;;;;;;;5.35;3.80;;;24.30;62.80;;;;;;4461530;32;20105;-74
2022/09/07 11:25:15;;;;;;;5.03;3.15;;;24.30;62.80;;;;;;4461237;32;20593;-74
2022/09/07 11:27:53;;;;;;;;;;;24.30;62.70;;;;;;4461998;32;20514;-75
2022/09/07 11:30:36;;;;;;;7.70;4.03;;;24.30;62.70;;;;;;4461526;32;19986;-75
2022/09/07 11:33:24;;;;;;;7.55;3.30;;;24.30;62.90;;;;;;4461289;32;20078;-73
2022/09/07 11:36:06;;;;;;;5.18;3.20;;;24.40;62.90;;;;;;4461552;32;20469;-74
2022/09/07 11:38:44;;;;;;;5.13;2.80;;;24.30;62.80;;;;;;4447577;32;20094;-74
2022/09/07 11:41:40;;;;;;;5.68;3.17;;;24.40;62.90;;;;;;4461579;32;20223;-74
2022/09/07 11:44:17;;;;;;;3.95;3.03;;;24.40;62.80;;;;;;4461234;32;20525;-74
2022/09/07 11:47:27;;;;;;;4.00;2.72;;;24.40;62.90;;;;;;4461074;32;20170;-74
2022/09/07 11:49:54;;;;;;;3.97;2.90;;;24.40;62.90;;;;;;4411509;32;20066;-74
2022/09/07 11:52:34;;;;;;;4.32;3.05;;;24.40;62.90;;;;;;4461156;32;20081;-73
2022/09/07 11:55:09;;;;;;;3.75;2.97;;;24.40;63.10;;;;;;4461406;32;20074;-79
2022/09/07 11:57:37;;;;;;;3.65;2.67;;;24.40;63.10;;;;;;4461202;32;20074;-75
2022/09/07 12:00:12;;;;;;;5.38;2.78;;;24.40;63.00;;;;;;4461332;32;20526;-74
2022/09/07 12:03:14;;;;;;;3.17;2.72;;;24.40;62.90;;;;;;4461106;32;20137;-73
2022/09/07 12:06:02;;;;;;;3.35;2.90;;;24.40;62.80;;;;;;4461235;32;20529;-70
2022/09/07 12:08:31;;;;;;;3.95;2.58;;;24.40;62.90;;;;;;4449513;32;20066;-70
2022/09/07 12:11:09;;;;;;;2.75;2.55;;;24.40;63.20;;;;;;4460778;32;20093;-70
2022/09/07 12:13:45;;;;;;;2.83;2.60;;;24.50;63.30;;;;;;4460749;32;20057;-70
2022/09/07 12:16:31;;;;;;;5.07;2.70;;;24.50;63.20;;;;;;4460804;32;20105;-70
2022/09/07 12:19:00;;;;;;;2.60;2.40;;;24.50;63.30;;;;;;4460576;32;20113;-70
2022/09/07 12:21:35;;;;;;;6.03;2.47;;;24.50;63.40;;;;;;4446888;32;20094;-69
2022/09/07 12:24:00;;;;;;;3.78;2.75;;;24.50;64.30;;;;;;4461151;32;20191;-69
2022/09/07 12:26:32;;;;;;;3.55;2.47;;;24.50;63.40;;;;;;4460821;32;20054;-70
2022/09/07 12:28:58;;;;;;;4.63;2.45;;;24.50;63.60;;;;;;4460449;32;20427;-70
2022/09/07 12:31:47;;;;;;;4.60;2.40;;;24.50;63.50;;;;;;4460530;32;20131;-70
2022/09/07 12:34:31;;;;;;;6.10;2.22;;;24.50;63.40;;;;;;4460799;32;20136;-70
2022/09/07 12:36:59;;;;;;;2.13;1.98;;;24.50;63.20;;;;;;4460367;32;20140;-70
2022/09/07 12:39:27;;;;;;;4.68;2.67;;;24.50;63.20;;;;;;4460394;32;20144;-70
2022/09/07 12:42:19;;;;;;;4.80;2.38;;;24.50;63.20;;;;;;4460664;32;20212;-70
2022/09/07 12:44:46;;;;;;;3.75;2.25;;;24.50;63.00;;;;;;4460429;32;20092;-70
2022/09/07 12:47:12;;;;;;;3.65;2.05;;;24.50;63.20;;;;;;4460188;32;20074;-71
2022/09/07 12:50:07;;;;;;;2.33;2.20;;;24.50;63.40;;;;;;4460427;32;20077;-70
2022/09/07 12:52:33;;;;;;;2.50;2.17;;;24.50;63.50;;;;;;4459944;32;20082;-70
2022/09/07 12:55:23;;;;;;;4.85;2.55;;;24.50;63.50;;;;;;4460389;32;20070;-71
2022/09/07 12:58:08;;;;;;;5.65;2.15;;;24.50;63.60;;;;;;4460261;32;20085;-71
2022/09/07 13:00:55;;;;;;;3.63;2.30;;;24.50;63.60;;;;;;4463889;32;20086;-70
2022/09/07 13:03:30;;;;;;;5.70;2.15;;;24.50;63.60;;;;;;4463520;32;20510;-70
2022/09/07 13:06:14;;;;;;;6.68;2.13;;;24.50;63.70;;;;;;4463023;32;20093;-70
2022/09/07 13:09:17;;;;;;;3.35;2.50;;;24.50;63.50;;;;;;4463465;32;20065;-70
2022/09/07 13:11:43;;;;;;;4.10;2.30;;;24.50;63.70;;;;;;4463416;32;20082;-70
2022/09/07 13:14:12;;;;;;;2.65;2.17;;;24.60;63.80;;;;;;4463141;32;20084;-72
2022/09/07 13:16:39;;;;;;;3.25;2.00;;;24.60;63.90;;;;;;4463559;32;20594;-71
2022/09/07 13:19:07;;;;;;;3.00;2.10;;;24.60;63.80;;;;;;4462954;32;20407;-70